Tiempo atmosférico en la estación meteorológica de Los Arcos, Navarra (470 m.)



Fecha
DESCASC
Temp. máxima en grados centígrados (hora)
DESCASC
Temp. mínima en grados centígrados (hora)
DESCASC
Temp. media en grados centígrados
DESCASC
Racha de viento máxima en m/sg (hora)
DESCASC
Velocidad máxima media en intervalos de 10 minutos(hora)
DESCASC
Precipitaciones diarias en mm
DESCASC
Precipitaciones de 00:00 a 06:00 en mm
DESCASC
Precipitaciones de 06:00 a 12:00 en mm
DESCASC
Precipitaciones de 12:00 a 18:00 en mm
DESCASC
Precipitaciones de 18:00 a 24:00 en mm
DESCASC
15-08-2019 29 (15:40) 16.5 (23:59) 22.8 15.28 (16:20) 4.72 (16:10) 0 0 0 0 0
14-08-2019 32.3 (16:10) 11 (00:00) 21.6 9.72 (22:20) 4.72 (16:20) 0 0 0 0 0
13-08-2019 24.7 (16:00) 12.4 (00:00) 18.6 8.06 (01:00) 4.72 (01:00) 0 0 0 0 0
12-08-2019 25 (16:00) 12.5 (00:00) 18.8 11.39 (19:00) 6.39 (13:40) 0 0 0 0 0
11-08-2019 28 (16:10) 15.7 (00:00) 21.8 11.11 (19:00) 5.56 (19:50) 2.6 1.2 1.4 0 0
10-08-2019 29.4 (16:20) 13.9 (00:00) 21.6 9.44 (22:20) 4.72 (22:30) 0 0 0 0 0
09-08-2019 34.2 (15:00) 17.7 (00:00) 26 15 (20:00) 7.5 (21:10) 1.6 0 0 0 1.6
08-08-2019 34.8 (17:50) 17.4 (00:00) 26.1 8.06 (17:20) 4.44 (17:20) 0.2 0.2 0 0 0
07-08-2019 32.4 (14:40) 18.5 (00:00) 25.5 9.72 (15:40) 4.44 (01:20) 0 0 0 0 0
06-08-2019 33.9 (16:50) 15.8 (00:00) 24.9 11.94 (21:40) 5.56 (21:40) 0 0 0 0 0
05-08-2019 34.7 (18:20) 15.8 (00:00) 25.3 9.44 (22:10) 4.44 (21:40) 0 0 0 0 0
04-08-2019 35.4 (17:20) 17.1 (00:00) 26.3 10.56 (22:40) 5.28 (22:20) 0 0 0 0 0
03-08-2019 35.3 (18:10) 13.9 (00:00) 24.6 9.17 (19:30) 4.44 (23:20) 0 0 0 0 0
02-08-2019 32.6 (16:20) 14.4 (00:00) 23.5 8.06 (20:40) 4.44 (20:30) 0 0 0 0 0
01-08-2019 30.5 (17:30) 16.4 (00:00) 23.4 10.28 (20:00) 5.83 (09:40) 4 0 4 0 0
31-07-2019 28.3 (16:40) 10.8 (00:00) 19.5 8.89 (23:30) 4.44 (22:40) 0 0 0 0 0
30-07-2019 25.8 (16:00) 14.9 (00:00) 20.3 11.11 (21:20) 5.83 (20:40) 0 0 0 0 0
29-07-2019 33.1 (16:40) 12.2 (00:00) 22.6 13.61 (20:10) 7.22 (20:10) 0 0 0 0 0
28-07-2019 27.1 (17:00) 12.6 (00:00) 19.9 7.22 (14:30) 3.89 (07:00) 0 0 0 0 0
27-07-2019 19.2 (17:00) 15.3 (00:00) 17.3 9.17 (16:50) 5.28 (18:00) 0.6 0 0.2 0.4 0
26-07-2019 27.3 (13:30) 18.3 (00:00) 22.8 10 (19:10) 6.11 (17:30) 3 2.4 0.6 0 0
25-07-2019 38.4 (16:50) 22.8 (00:00) 30.6 12.78 (18:50) 8.33 (18:50) 0 0 0 0 0
24-07-2019 38.7 (18:00) 19.4 (00:00) 29.1 11.39 (20:00) 7.22 (20:00) 0 0 0 0 0
23-07-2019 38.8 (17:50) 21.5 (00:00) 30.1 14.72 (21:20) 7.78 (21:40) 0.8 0 0 0 0.8
22-07-2019 37.9 (18:00) 19.8 (00:00) 28.9 9.72 (14:50) 5.83 (23:30) 0.2 0 0.2 0 0
21-07-2019 34.7 (18:00) 18.2 (00:00) 26.5 9.44 (21:10) 5 (22:40) 1.6 0 0 0 1.6
20-07-2019 34.9 (17:30) 20.3 (00:00) 27.6 11.11 (21:00) 6.11 (20:30) 0 0 0 0 0
19-07-2019 34.1 (18:50) 12.7 (00:00) 23.4 8.33 (15:40) 4.44 (20:30) 0 0 0 0 0

Gráficas

Temp. máximas Temp. mínimas Temp. medias Precipitaciones Rachas de viento máximas Velocidades máximas media en intervalos de 10 minutos

Datos horarios

Fecha y hora oficial Temperatura (ºC) Velocidad del viento (km/h) Dirección del viento Racha (km/h) Dirección de racha Precipitación (mm) Presión (hPa) Tendencia (hPa) Humedad (%)
2019-08-17 23:00:00 26.5 9 Norte 14 Norte 0 -- -- 49
2019-08-17 22:00:00 27.8 10 Norte 14 Este 0 -- -- 43
2019-08-17 21:00:00 31.4 2 Este 12 Sudeste 0 -- -- 33
2019-08-17 20:00:00 34 4 Sudeste 17 Sudeste 0 -- -- 27
2019-08-17 19:00:00 35.4 8 Este 16 Sudeste 0 -- -- 26
2019-08-17 18:00:00 35.9 6 Oeste 19 Sudeste 0 -- -- 27
2019-08-17 17:00:00 35.6 6 Sudeste 15 Sudeste 0 -- -- 26
2019-08-17 16:00:00 34.4 7 Este 17 Sudoeste 0 -- -- 28
2019-08-17 15:00:00 33.3 6 Sudoeste 17 Sudeste 0 -- -- 32
2019-08-17 14:00:00 32.2 6 Sur 18 Sudeste 0 -- -- 35
2019-08-17 13:00:00 30 6 Sudoeste 16 Sudeste 0 -- -- 38
2019-08-17 12:00:00 28.2 6 Sudeste 21 Este 0 -- -- 43
2019-08-17 11:00:00 26.1 9 Sudeste 17 Sudeste 0 -- -- 49
2019-08-17 10:00:00 24 4 Sudeste 8 Sudeste 0 -- -- 45
2019-08-17 09:00:00 19.3 0 Calma -- -- 0 -- -- 51
2019-08-17 08:00:00 16.3 0 Calma 15 Noroeste 0 -- -- 60
2019-08-17 07:00:00 16 6 Noroeste 14 Norte 0 -- -- 61
2019-08-17 06:00:00 16.8 0 Calma 14 Noroeste 0 -- -- 62
2019-08-17 05:00:00 17.4 11 Norte 13 Noroeste 0 -- -- 62
2019-08-17 04:00:00 18 9 Noroeste 13 Norte 0 -- -- 60
2019-08-17 03:00:00 19.7 9 Noroeste 17 Noroeste 0 -- -- 56
2019-08-17 02:00:00 21.5 8 Noroeste 25 Noroeste 0 -- -- 54
2019-08-17 01:00:00 22.1 11 Noroeste 23 Norte 0 -- -- 57
2019-08-17 00:00:00 23.3 13 Norte 25 Norte 0 -- -- 56
2019-08-16 23:00:00 24.3 13 Norte 26 Norte 0 -- -- 54
2019-08-16 22:00:00 26.2 8 Norte 17 Norte 0 -- -- 50
2019-08-16 21:00:00 29.3 3 Sudeste 16 Sudeste 0 -- -- 34
2019-08-16 20:00:00 31.7 9 Sudeste 18 Sudeste 0 -- -- 30
2019-08-16 19:00:00 33.4 8 Sudeste 17 Este 0 -- -- 29
2019-08-16 18:00:00 33.5 9 Sudeste 19 Este 0 -- -- 29
2019-08-16 17:00:00 32.9 12 Este 21 Este 0 -- -- 28
2019-08-16 16:00:00 31.9 8 Sudeste 19 Este 0 -- -- 28
2019-08-16 15:00:00 30.7 10 Sudeste 23 Este 0 -- -- 25
2019-08-16 14:00:00 28.9 9 Sudeste 19 Sudeste 0 -- -- 26
2019-08-16 13:00:00 26.5 9 Sudeste 18 Este 0 -- -- 29
2019-08-16 12:00:00 24.1 8 Sudeste 17 Este 0 -- -- 40
2019-08-16 11:00:00 21.4 8 Sudeste 14 Este 0 -- -- 49
2019-08-16 10:00:00 18.7 5 Sudeste 11 Sudeste 0 -- -- 59
2019-08-16 09:00:00 15.1 3 Sudeste 8 Norte 0 -- -- 71
2019-08-16 08:00:00 11.8 3 Nordeste 14 Noroeste 0 -- -- 84
2019-08-16 07:00:00 10.9 10 Norte 12 Norte 0 -- -- 86
2019-08-16 06:00:00 11.4 12 Norte 14 Norte 0 -- -- 86
2019-08-16 05:00:00 11.7 5 Noroeste 13 Norte 0 -- -- 85
2019-08-16 04:00:00 12.5 10 Norte 17 Norte 0 -- -- 83
2019-08-16 03:00:00 13.4 10 Noroeste 17 Norte 0 -- -- 81
2019-08-16 02:00:00 13.6 9 Norte 13 Noroeste 0 -- -- 77
2019-08-16 01:00:00 15.1 8 Norte 22 Norte 0 -- -- 74
2019-08-16 00:00:00 16.5 11 Norte 27 Norte 0 -- -- 68
2019-08-15 23:00:00 16.9 14 Norte 25 Norte 0 -- -- 70
2019-08-15 22:00:00 17.8 8 Nordeste 19 Nordeste 0 -- -- 67
2019-08-15 21:00:00 19.7 11 Norte 27 Noroeste 0 -- -- 61
2019-08-15 20:00:00 21.9 16 Norte 26 Nordeste 0 -- -- 55
2019-08-15 19:00:00 24.4 14 Norte 27 Nordeste 0 -- -- 49
2019-08-15 18:00:00 26.3 14 Norte 32 Nordeste 0 -- -- 45
2019-08-15 17:00:00 28.6 16 Noroeste 55 Norte 0 -- -- 39
2019-08-15 16:00:00 28.8 16 Noroeste 30 Noroeste 0 -- -- 33
2019-08-15 15:00:00 28 13 Noroeste 26 Noroeste 0 -- -- 36
2019-08-15 14:00:00 26.8 10 Norte 29 Norte 0 -- -- 43
2019-08-15 13:00:00 26.4 10 Noroeste 28 Noroeste 0 -- -- 44
2019-08-15 12:00:00 25.2 14 Noroeste 25 Noroeste 0 -- -- 50
2019-08-15 11:00:00 23.1 12 Noroeste 23 Noroeste 0 -- -- 57
2019-08-15 10:00:00 22.1 7 Norte 21 Nordeste 0 -- -- 61
2019-08-15 09:00:00 22 6 Norte 15 Noroeste 0 -- -- 63
2019-08-15 08:00:00 19.6 4 Noroeste 7 Noroeste 0 -- -- 76
2019-08-15 07:00:00 19.1 3 Noroeste 4 Noroeste 0 -- -- 77
2019-08-15 06:00:00 18.8 0 Calma 4 Norte 0 -- -- 76
2019-08-15 05:00:00 18.6 2 Nordeste 7 Nordeste 0 -- -- 77
2019-08-15 04:00:00 18.2 0 Calma 4 Nordeste 0 -- -- 78
2019-08-15 03:00:00 18.1 0 Calma 9 Noroeste 0 -- -- 77
2019-08-15 02:00:00 18.9 6 Noroeste 14 Oeste 0 -- -- 72
2019-08-15 01:00:00 20.3 6 Oeste 23 Noroeste 0 -- -- 71
2019-08-15 00:00:00 20.1 6 Noroeste 26 Norte 0 -- -- 71
2019-08-14 23:00:00 20.6 12 Norte 35 Norte 0 -- -- 66
2019-08-14 22:00:00 21.9 14 Norte 27 Norte 0 -- -- 57
2019-08-14 21:00:00 24 9 Norte 26 Nordeste 0 -- -- 50
2019-08-14 20:00:00 26 13 Nordeste 29 Nordeste 0 -- -- 42
2019-08-14 19:00:00 29 14 Nordeste 33 Norte 0 -- -- 37
2019-08-14 18:00:00 31.1 15 Norte 26 Norte 0 -- -- 32
2019-08-14 17:00:00 32.2 13 Noroeste 28 Norte 0 -- -- 29
2019-08-14 16:00:00 32 12 Noroeste 27 Noroeste 0 -- -- 29
2019-08-14 15:00:00 31.7 10 Noroeste 34 Oeste 0 -- -- 27
2019-08-14 14:00:00 30.1 13 Oeste 29 Oeste 0 -- -- 27
2019-08-14 13:00:00 28.6 6 Sur 18 Sudoeste 0 -- -- 31
2019-08-14 12:00:00 25.8 5 Sudeste 14 Sudoeste 0 -- -- 38
2019-08-14 11:00:00 22.1 4 Sudoeste 11 Oeste 0 -- -- 45
2019-08-14 10:00:00 18.7 4 Sur 7 Sur 0 -- -- 51
2019-08-14 09:00:00 15.4 4 Oeste 10 Noroeste 0 -- -- 58
2019-08-14 08:00:00 11.9 2 Oeste 17 Noroeste 0 -- -- 73
2019-08-14 07:00:00 11.2 10 Noroeste 16 Noroeste 0 -- -- 74
2019-08-14 06:00:00 11.6 11 Noroeste 13 Noroeste 0 -- -- 73
2019-08-14 05:00:00 11.9 2 Oeste 14 Noroeste 0 -- -- 72
2019-08-14 04:00:00 12 3 Noroeste 16 Noroeste 0 -- -- 71
2019-08-14 03:00:00 12.5 12 Noroeste 15 Noroeste 0 -- -- 71
2019-08-14 02:00:00 12.7 6 Noroeste 14 Noroeste 0 -- -- 68
2019-08-14 01:00:00 13.2 9 Noroeste 12 Noroeste 0 -- -- 69
2019-08-14 00:00:00 14.6 4 Oeste 19 Nordeste 0 -- -- 64
2019-08-13 23:00:00 16 9 Nordeste 20 Nordeste 0 -- -- 55
2019-08-13 22:00:00 17 8 Nordeste 22 Norte 0 -- -- 57
2019-08-13 21:00:00 18.7 10 Nordeste 23 Norte 0 -- -- 54
2019-08-13 20:00:00 20.4 12 Nordeste 27 Nordeste 0 -- -- 51
2019-08-13 19:00:00 22.7 14 Norte 28 Nordeste 0 -- -- 45
2019-08-13 18:00:00 23.9 14 Norte 29 Norte 0 -- -- 42
2019-08-13 17:00:00 24.5 14 Norte 26 Norte 0 -- -- 40
2019-08-13 16:00:00 24.7 10 Norte 28 Nordeste 0 -- -- 39
2019-08-13 15:00:00 24.1 13 Nordeste 24 Norte 0 -- -- 39
2019-08-13 14:00:00 23.6 13 Norte 27 Nordeste 0 -- -- 42
2019-08-13 13:00:00 22.5 9 Nordeste 27 Norte 0 -- -- 41
2019-08-13 12:00:00 21.3 12 Norte 26 Oeste 0 -- -- 44
2019-08-13 11:00:00 19.3 11 Noroeste 25 Noroeste 0 -- -- 54
2019-08-13 10:00:00 17.9 7 Oeste 14 Oeste 0 -- -- 61
2019-08-13 09:00:00 14.6 6 Oeste 13 Sudoeste 0 -- -- 72
2019-08-13 08:00:00 13.5 6 Oeste 11 Oeste 0 -- -- 75
2019-08-13 07:00:00 13 0 Calma 9 Oeste 0 -- -- 74
2019-08-13 06:00:00 13.7 4 Noroeste 20 Noroeste 0 -- -- 68
2019-08-13 05:00:00 13.2 7 Noroeste 14 Noroeste 0 -- -- 69
2019-08-13 04:00:00 13.2 6 Noroeste 22 Noroeste 0 -- -- 69
2019-08-13 03:00:00 14.6 12 Noroeste 23 Norte 0 -- -- 66
2019-08-13 02:00:00 14.9 10 Noroeste 29 Noroeste 0 -- -- 65
2019-08-13 01:00:00 15 17 Noroeste 29 Noroeste 0 -- -- 63
2019-08-13 00:00:00 14.8 4 Noroeste 22 Noroeste 0 -- -- 65
2019-08-12 23:00:00 14.9 10 Noroeste 23 Noroeste 0 -- -- 67
2019-08-12 22:00:00 15.4 7 Norte 22 Noroeste 0 -- -- 64
2019-08-12 21:00:00 16.4 8 Norte 26 Noroeste 0 -- -- 60
2019-08-12 20:00:00 18.3 13 Norte 37 Noroeste 0 -- -- 58
2019-08-12 19:00:00 21.1 17 Noroeste 41 Noroeste 0 -- -- 47
2019-08-12 18:00:00 22.2 21 Noroeste 38 Noroeste 0 -- -- 44
2019-08-12 17:00:00 24.6 19 Noroeste 39 Noroeste 0 -- -- 36
2019-08-12 16:00:00 25 16 Noroeste 38 Noroeste 0 -- -- 36
2019-08-12 15:00:00 24.2 20 Noroeste 38 Norte 0 -- -- 36
2019-08-12 14:00:00 23.9 17 Norte 39 Oeste 0 -- -- 39
2019-08-12 13:00:00 23.1 19 Noroeste 40 Noroeste 0 -- -- 41
2019-08-12 12:00:00 21.8 19 Noroeste 33 Noroeste 0 -- -- 44
2019-08-12 11:00:00 20.3 14 Noroeste 32 Noroeste 0 -- -- 50
2019-08-12 10:00:00 19 15 Noroeste 26 Noroeste 0 -- -- 55
2019-08-12 09:00:00 16.3 16 Noroeste 27 Noroeste 0 -- -- 62
2019-08-12 08:00:00 13.6 8 Noroeste 20 Noroeste 0 -- -- 73
2019-08-12 07:00:00 13.3 6 Oeste 21 Noroeste 0 -- -- 72
2019-08-12 06:00:00 13.5 12 Noroeste 23 Noroeste 0 -- -- 75
2019-08-12 05:00:00 14.2 11 Noroeste 22 Noroeste 0 -- -- 76
2019-08-12 04:00:00 14.6 7 Oeste 22 Noroeste 0 -- -- 74
2019-08-12 03:00:00 15.2 8 Noroeste 19 Noroeste 0 -- -- 74
2019-08-12 02:00:00 15.6 10 Noroeste 22 Norte 0 -- -- 71
2019-08-12 01:00:00 16.6 12 Norte 33 Noroeste 0 -- -- 67
2019-08-12 00:00:00 16.7 15 Norte 33 Norte 0 -- -- 66
2019-08-11 23:00:00 17.2 15 Norte 36 Norte 0 -- -- 65
2019-08-11 22:00:00 17.8 13 Norte 32 Norte 0 -- -- 68
2019-08-11 21:00:00 18.4 15 Norte 36 Norte 0 -- -- 66
2019-08-11 20:00:00 19.7 18 Norte 38 Norte 0 -- -- 63
2019-08-11 19:00:00 23.3 17 Norte 40 Norte 0 -- -- 52
2019-08-11 18:00:00 24.1 17 Norte 32 Norte 0 -- -- 50
2019-08-11 17:00:00 24.5 12 Norte 27 Nordeste 0 -- -- 49
2019-08-11 16:00:00 27.6 14 Noroeste 29 Noroeste 0 -- -- 40
2019-08-11 15:00:00 25 8 Norte 23 Nordeste 0 -- -- 46
2019-08-11 14:00:00 26.2 13 Norte 26 Oeste 0 -- -- 46
2019-08-11 13:00:00 24.1 8 Noroeste 22 Noroeste 0 -- -- 54
2019-08-11 12:00:00 22.4 5 Noroeste 12 Noroeste 0 -- -- 63
2019-08-11 11:00:00 20.3 6 Sudoeste 14 Sudoeste 0 -- -- 75
2019-08-11 10:00:00 17.5 8 Sudoeste 14 Oeste 0 -- -- 90
2019-08-11 09:00:00 16.3 2 Sudeste 11 Oeste 0.2 -- -- 92
2019-08-11 08:00:00 15.9 8 Noroeste 17 Oeste 1.2 -- -- 91
2019-08-11 07:00:00 17.1 7 Oeste 13 Oeste 0 -- -- 83
2019-08-11 06:00:00 16.8 5 Noroeste 14 Noroeste 0 -- -- 86
2019-08-11 05:00:00 16.8 9 Noroeste 16 Noroeste 0 -- -- 84
2019-08-11 04:00:00 16.9 9 Noroeste 18 Norte 0 -- -- 83
2019-08-11 03:00:00 16.9 6 Oeste 16 Noroeste 0.2 -- -- 84
2019-08-11 02:00:00 16.8 6 Norte 18 Noroeste 0 -- -- 85
2019-08-11 01:00:00 16.9 8 Norte 24 Norte 1 -- -- 83
2019-08-11 00:00:00 18.5 8 Noroeste 29 Noroeste 0 -- -- 71
2019-08-10 23:00:00 19 15 Norte 34 Norte 0 -- -- 69
2019-08-10 22:00:00 19.5 15 Norte 29 Norte 0 -- -- 67
2019-08-10 21:00:00 21.6 13 Norte 26 Norte 0 -- -- 60
2019-08-10 20:00:00 24.2 14 Norte 24 Norte 0 -- -- 52
2019-08-10 19:00:00 25.2 11 Nordeste 23 Nordeste 0 -- -- 50
2019-08-10 18:00:00 26.3 15 Este 24 Norte 0 -- -- 47
2019-08-10 17:00:00 28.5 5 Noroeste 20 Norte 0 -- -- 39
2019-08-10 16:00:00 29.3 7 Noroeste 27 Norte 0 -- -- 38
2019-08-10 15:00:00 27.7 10 Nordeste 21 Nordeste 0 -- -- 41
2019-08-10 14:00:00 28.1 8 Nordeste 19 Nordeste 0 -- -- 41
2019-08-10 13:00:00 26.8 11 Noroeste 21 Norte 0 -- -- 46
2019-08-10 12:00:00 25.2 7 Nordeste 17 Norte 0 -- -- 51
2019-08-10 11:00:00 23.8 11 Norte 17 Norte 0 -- -- 57
2019-08-10 10:00:00 21.3 5 Oeste 10 Nordeste 0 -- -- 68
2019-08-10 09:00:00 17.5 6 Oeste 13 Oeste 0 -- -- 79
2019-08-10 08:00:00 14.8 8 Norte 13 Norte 0 -- -- 89
2019-08-10 07:00:00 14 8 Norte 10 Norte 0 -- -- 89
2019-08-10 06:00:00 14.4 0 Calma 9 Norte 0 -- -- 87
2019-08-10 05:00:00 14.8 5 Noroeste 12 Noroeste 0 -- -- 84
2019-08-10 04:00:00 15.2 3 Noroeste 13 Noroeste 0 -- -- 84
2019-08-10 03:00:00 15.3 5 Noroeste 13 Norte 0 -- -- 84
2019-08-10 02:00:00 15.9 6 Norte 12 Noroeste 0 -- -- 84
2019-08-10 01:00:00 16.3 6 Norte 13 Norte 0 -- -- 84
2019-08-10 00:00:00 17.7 8 Norte 17 Norte 0 -- -- 78
2019-08-09 23:00:00 18.6 10 Norte 22 Noroeste 0 -- -- 83
2019-08-09 22:00:00 18.7 10 Noroeste 54 Noroeste 1.6 -- -- 78
2019-08-09 21:00:00 26.5 21 Oeste 46 Oeste 0 -- -- 41
2019-08-09 20:00:00 27.9 25 Oeste 54 Oeste 0 -- -- 42
2019-08-09 19:00:00 30.9 18 Oeste 36 Noroeste 0 -- -- 42
2019-08-09 18:00:00 33.6 19 Noroeste 34 Noroeste 0 -- -- 38
2019-08-09 17:00:00 32.6 17 Noroeste 32 Oeste 0 -- -- 39
2019-08-09 16:00:00 33 14 Oeste 37 Oeste 0 -- -- 39
2019-08-09 15:00:00 34.2 15 Oeste 34 Oeste 0 -- -- 36
2019-08-09 14:00:00 32.1 15 Oeste 37 Oeste 0 -- -- 39
2019-08-09 13:00:00 32.7 18 Oeste 42 Oeste 0 -- -- 36
2019-08-09 12:00:00 32.7 14 Sudoeste 30 Oeste 0 -- -- 36
2019-08-09 11:00:00 31.2 11 Sudoeste 24 Sudoeste 0 -- -- 37
2019-08-09 10:00:00 28.8 6 Sudoeste 17 Sur 0 -- -- 42
2019-08-09 09:00:00 26.2 3 Sudeste 8 Sudeste 0 -- -- 51
2019-08-09 08:00:00 22.8 0 Calma 5 Oeste 0 -- -- 60
2019-08-09 07:00:00 22.4 0 Calma 5 Sudoeste 0 -- -- 60
2019-08-09 06:00:00 23.3 0 Calma 8 Oeste 0 -- -- 56
2019-08-09 05:00:00 24.6 5 Oeste 21 Oeste 0 -- -- 52
2019-08-09 04:00:00 26.9 10 Oeste 22 Oeste 0 -- -- 46
2019-08-09 03:00:00 26.3 11 Noroeste 18 Oeste 0 -- -- 47
2019-08-09 02:00:00 27 5 Oeste 15 Noroeste 0 -- -- 45
2019-08-09 01:00:00 27.3 11 Noroeste 16 Oeste 0 -- -- 46
2019-08-09 00:00:00 28 12 Noroeste 18 Noroeste 0 -- -- 46
2019-08-08 23:00:00 28.3 2 Oeste 9 Este 0 -- -- 45
2019-08-08 22:00:00 29.4 5 Este 8 Este 0 -- -- 42
2019-08-08 21:00:00 32 2 Sudoeste 12 Sudoeste 0 -- -- 39
2019-08-08 20:00:00 33.4 5 Sudoeste 17 Oeste 0 -- -- 36
2019-08-08 19:00:00 34.6 6 Sur 19 Oeste 0 -- -- 34
2019-08-08 18:00:00 34.6 11 Sudoeste 29 Noroeste 0 -- -- 35
2019-08-08 17:00:00 34.4 11 Sudoeste 26 Oeste 0 -- -- 34
2019-08-08 16:00:00 33.7 10 Oeste 25 Sudoeste 0 -- -- 36
2019-08-08 15:00:00 32.5 6 Sur 26 Sur 0 -- -- 37
2019-08-08 14:00:00 32.1 10 Sudoeste 22 Sudoeste 0 -- -- 39
2019-08-08 13:00:00 31.2 6 Oeste 18 Sudoeste 0 -- -- 39
2019-08-08 12:00:00 28.6 5 Sur 16 Sur 0 -- -- 44
2019-08-08 11:00:00 26.4 5 Sur 11 Sudeste 0 -- -- 51
2019-08-08 10:00:00 23.7 3 Sur 8 Sudeste 0 -- -- 60
2019-08-08 09:00:00 20.7 2 Sur 6 Norte 0 -- -- 72
2019-08-08 08:00:00 18.1 0 Calma 8 Nordeste 0 -- -- 82
2019-08-08 07:00:00 17.8 4 Oeste 14 Noroeste 0 -- -- 82
2019-08-08 06:00:00 17.7 10 Norte 13 Norte 0 -- -- 81
2019-08-08 05:00:00 17.7 7 Norte 10 Norte 0 -- -- 83
2019-08-08 04:00:00 18.9 0 Calma 6 Noroeste 0 -- -- 77
2019-08-08 03:00:00 19.1 6 Noroeste 10 Noroeste 0 -- -- 79
2019-08-08 02:00:00 19.9 9 Norte 12 Norte 0 -- -- 80
2019-08-08 01:00:00 20.6 8 Noroeste 19 Oeste 0.2 -- -- 76
2019-08-08 00:00:00 23.8 4 Oeste 15 Oeste 0 -- -- 50
2019-08-07 23:00:00 24.4 2 Nordeste 17 Noroeste 0 -- -- 47
2019-08-07 22:00:00 25.5 10 Noroeste 27 Noroeste 0 -- -- 43
2019-08-07 21:00:00 27.3 12 Noroeste 23 Oeste 0 -- -- 37
2019-08-07 20:00:00 27.8 3 Norte 14 Nordeste 0 -- -- 45
2019-08-07 19:00:00 27.3 10 Este 19 Oeste 0 -- -- 48
2019-08-07 18:00:00 28.7 12 Oeste 22 Oeste 0 -- -- 38
2019-08-07 17:00:00 29.9 9 Oeste 18 Oeste 0 -- -- 39
2019-08-07 16:00:00 30.8 9 Oeste 35 Norte 0 -- -- 34
2019-08-07 15:00:00 32.3 8 Sudoeste 18 Sudoeste 0 -- -- 32
2019-08-07 14:00:00 31.1 5 Sudoeste 15 Este 0 -- -- 36
2019-08-07 13:00:00 30 8 Nordeste 21 Oeste 0 -- -- 38
2019-08-07 12:00:00 27.9 7 Oeste 15 Oeste 0 -- -- 44
2019-08-07 11:00:00 26.3 7 Norte 18 Noroeste 0 -- -- 48
2019-08-07 10:00:00 23.2 5 Sudoeste 12 Oeste 0 -- -- 61
2019-08-07 09:00:00 20.7 8 Noroeste 14 Oeste 0 -- -- 69
2019-08-07 08:00:00 19.1 6 Noroeste 14 Norte 0 -- -- 74
2019-08-07 07:00:00 18.7 11 Norte 15 Norte 0 -- -- 75
2019-08-07 06:00:00 18.9 9 Noroeste 14 Noroeste 0 -- -- 72
2019-08-07 05:00:00 18.9 10 Noroeste 14 Noroeste 0 -- -- 71
2019-08-07 04:00:00 19.8 4 Oeste 12 Oeste 0 -- -- 68
2019-08-07 03:00:00 19.8 3 Oeste 21 Oeste 0 -- -- 65
2019-08-07 02:00:00 20.3 9 Noroeste 26 Noroeste 0 -- -- 64
2019-08-07 01:00:00 20.7 14 Noroeste 26 Norte 0 -- -- 66
2019-08-07 00:00:00 21.1 15 Noroeste 33 Norte 0 -- -- 68
2019-08-06 23:00:00 21.9 15 Noroeste 38 Norte 0 -- -- 65
2019-08-06 22:00:00 23.5 17 Norte 43 Norte 0 -- -- 62
2019-08-06 21:00:00 26 17 Norte 31 Norte 0 -- -- 59
2019-08-06 20:00:00 29.2 14 Norte 24 Norte 0 -- -- 52
2019-08-06 19:00:00 32.7 11 Norte 19 Norte 0 -- -- 37
2019-08-06 18:00:00 33.3 4 Este 11 Nordeste 0 -- -- 33
2019-08-06 17:00:00 33.7 4 Sudoeste 14 Sudeste 0 -- -- 32
2019-08-06 16:00:00 33.5 6 Sur 14 Sur 0 -- -- 33
2019-08-06 15:00:00 32 5 Sudeste 14 Sudeste 0 -- -- 38
2019-08-06 14:00:00 30.4 5 Sudeste 14 Sudoeste 0 -- -- 43
2019-08-06 13:00:00 29.3 6 Sudeste 13 Sudeste 0 -- -- 46
2019-08-06 12:00:00 26.7 7 Sudeste 14 Sudeste 0 -- -- 52
2019-08-06 11:00:00 25.1 5 Sur 10 Oeste 0 -- -- 55
2019-08-06 10:00:00 23.1 4 Sudeste 9 Sudeste 0 -- -- 60
2019-08-06 09:00:00 20.2 4 Noroeste 13 Norte 0 -- -- 70
2019-08-06 08:00:00 16.8 10 Norte 17 Noroeste 0 -- -- 84
2019-08-06 07:00:00 16 12 Noroeste 17 Noroeste 0 -- -- 86
2019-08-06 06:00:00 16.4 8 Noroeste 13 Noroeste 0 -- -- 85
2019-08-06 05:00:00 16.9 11 Noroeste 14 Noroeste 0 -- -- 82
2019-08-06 04:00:00 17.5 8 Noroeste 16 Noroeste 0 -- -- 80
2019-08-06 03:00:00 18.5 10 Noroeste 15 Noroeste 0 -- -- 76
2019-08-06 02:00:00 19.7 8 Oeste 25 Norte 0 -- -- 69
2019-08-06 01:00:00 20.5 15 Norte 26 Norte 0 -- -- 67
2019-08-06 00:00:00 21.4 9 Norte 21 Norte 0 -- -- 65
2019-08-05 23:00:00 22.4 12 Norte 34 Norte 0 -- -- 64
2019-08-05 22:00:00 22.9 14 Norte 32 Norte 0 -- -- 63
2019-08-05 21:00:00 25.1 14 Norte 28 Norte 0 -- -- 58
2019-08-05 20:00:00 29 15 Norte 28 Norte 0 -- -- 50
2019-08-05 19:00:00 32.9 15 Norte 26 Norte 0 -- -- 42
2019-08-05 18:00:00 34.5 6 Este 21 Este 0 -- -- 33
2019-08-05 17:00:00 34.3 6 Sur 17 Este 0 -- -- 35
2019-08-05 16:00:00 33.5 8 Sudeste 20 Sudeste 0 -- -- 37
2019-08-05 15:00:00 31.6 8 Sudeste 21 Este 0 -- -- 40
2019-08-05 14:00:00 30.2 5 Este 17 Este 0 -- -- 44
2019-08-05 13:00:00 28.5 7 Nordeste 17 Este 0 -- -- 48
2019-08-05 12:00:00 -- 4 Sudoeste 11 Sudeste 0 -- -- --
2019-08-05 11:00:00 24.7 5 Este 12 Sudoeste 0 -- -- 57
2019-08-05 10:00:00 22.1 5 Oeste 15 Noroeste 0 -- -- 65
2019-08-05 09:00:00 20.2 5 Noroeste 12 Noroeste 0 -- -- 71
2019-08-05 08:00:00 16.7 9 Noroeste 13 Noroeste 0 -- -- 86
2019-08-05 07:00:00 15.9 10 Noroeste 14 Noroeste 0 -- -- 88
2019-08-05 06:00:00 16 8 Noroeste 12 Noroeste 0 -- -- 88
2019-08-05 05:00:00 16.5 6 Noroeste 14 Oeste 0 -- -- 85
2019-08-05 04:00:00 17.6 4 Oeste 12 Norte 0 -- -- 82
2019-08-05 03:00:00 18.6 3 Noroeste 15 Noroeste 0 -- -- 78
2019-08-05 02:00:00 19.2 9 Noroeste 17 Noroeste 0 -- -- 77
2019-08-05 01:00:00 19.7 9 Norte 26 Noroeste 0 -- -- 76
2019-08-05 00:00:00 20.3 10 Noroeste 36 Norte 0 -- -- 74
2019-08-04 23:00:00 20.9 17 Norte 38 Norte 0 -- -- 73
2019-08-04 22:00:00 21.9 15 Noroeste 33 Norte 0 -- -- 71
2019-08-04 21:00:00 24.2 16 Norte 34 Norte 0 -- -- 63
2019-08-04 20:00:00 28.7 10 Norte 28 Norte 0 -- -- 52
2019-08-04 19:00:00 31.6 19 Norte 32 Norte 0 -- -- 46
2019-08-04 18:00:00 33.4 11 Norte 23 Norte 0 -- -- 42
2019-08-04 17:00:00 35.2 6 Sudoeste 17 Oeste 0 -- -- 33
2019-08-04 16:00:00 34.3 6 Sur 16 Sudeste 0 -- -- 34
2019-08-04 15:00:00 32.3 6 Oeste 14 Sudoeste 0 -- -- 40
2019-08-04 14:00:00 31 9 Sudeste 15 Sudeste 0 -- -- 44
2019-08-04 13:00:00 29.4 6 Sur 13 Sur 0 -- -- 48
2019-08-04 12:00:00 27.7 5 Sudoeste 15 Sudeste 0 -- -- 51
2019-08-04 11:00:00 25.7 5 Sudoeste 12 Sudoeste 0 -- -- 57
2019-08-04 10:00:00 23.6 6 Sudoeste 12 Sudoeste 0 -- -- 64
2019-08-04 09:00:00 20.9 5 Noroeste 14 Noroeste 0 -- -- 73
2019-08-04 08:00:00 18.1 8 Noroeste 12 Norte 0 -- -- 84
2019-08-04 07:00:00 17.3 8 Noroeste 13 Noroeste 0 -- -- 86
2019-08-04 06:00:00 17.9 11 Noroeste 14 Noroeste 0 -- -- 84
2019-08-04 05:00:00 18.5 9 Noroeste 19 Noroeste 0 -- -- 81
2019-08-04 04:00:00 19.5 9 Noroeste 18 Noroeste 0 -- -- 77
2019-08-04 03:00:00 19.6 12 Noroeste 20 Noroeste 0 -- -- 78
2019-08-04 02:00:00 20.4 10 Norte 19 Noroeste 0 -- -- 76
2019-08-04 01:00:00 22.2 6 Noroeste 18 Oeste 0 -- -- 67
2019-08-04 00:00:00 23.9 4 Sudoeste 31 Norte 0 -- -- 59
2019-08-03 23:00:00 24.8 13 Norte 24 Norte 0 -- -- 58
2019-08-03 22:00:00 26.3 12 Norte 26 Norte 0 -- -- 58
2019-08-03 21:00:00 29.1 11 Norte 24 Norte 0 -- -- 50
2019-08-03 20:00:00 32.2 12 Norte 33 Oeste 0 -- -- 41
2019-08-03 19:00:00 35.1 4 Sur 18 Este 0 -- -- 27
2019-08-03 18:00:00 35.2 4 Norte 18 Nordeste 0 -- -- 28
2019-08-03 17:00:00 35.1 8 Norte 17 Este 0 -- -- 27
2019-08-03 16:00:00 33.9 10 Este 23 Este 0 -- -- 30
2019-08-03 15:00:00 32.9 11 Este 23 Sudeste 0 -- -- 31
2019-08-03 14:00:00 31.4 9 Sudeste 24 Este 0 -- -- 34
2019-08-03 13:00:00 29.7 15 Este 25 Este 0 -- -- 36
2019-08-03 12:00:00 27.5 13 Sudeste 22 Este 0 -- -- 45
2019-08-03 11:00:00 25.3 6 Este 12 Este 0 -- -- 48
2019-08-03 10:00:00 22 4 Sur 8 Sudeste 0 -- -- 60
2019-08-03 09:00:00 18.5 2 Sur 10 Norte 0 -- -- 73
2019-08-03 08:00:00 15.1 0 Calma 12 Noroeste 0 -- -- 85
2019-08-03 07:00:00 14.1 2 Oeste 12 Norte 0 -- -- 87
2019-08-03 06:00:00 14.7 5 Norte 14 Norte 0 -- -- 85
2019-08-03 05:00:00 15.4 12 Norte 17 Noroeste 0 -- -- 85
2019-08-03 04:00:00 16.4 14 Norte 18 Norte 0 -- -- 83
2019-08-03 03:00:00 17.1 11 Norte 17 Norte 0 -- -- 81
2019-08-03 02:00:00 17.7 11 Norte 16 Norte 0 -- -- 79
2019-08-03 01:00:00 18.6 4 Norte 17 Norte 0 -- -- 76
2019-08-03 00:00:00 19.9 10 Norte 15 Noroeste 0 -- -- 71
2019-08-02 23:00:00 21.1 5 Noroeste 16 Nordeste 0 -- -- 56
2019-08-02 22:00:00 23.1 6 Nordeste 17 Nordeste 0 -- -- 49
2019-08-02 21:00:00 25.8 10 Norte 29 Norte 0 -- -- 40
2019-08-02 20:00:00 28.2 13 Nordeste 26 Nordeste 0 -- -- 38
2019-08-02 19:00:00 30.9 15 Norte 26 Norte 0 -- -- 36
2019-08-02 18:00:00 32.4 13 Noroeste 24 Nordeste 0 -- -- 33
2019-08-02 17:00:00 32.2 7 Norte 22 Norte 0 -- -- 37
2019-08-02 16:00:00 31.9 8 Este 20 Nordeste 0 -- -- 38
2019-08-02 15:00:00 30.7 5 Sudoeste 16 Nordeste 0 -- -- 39
2019-08-02 14:00:00 29.2 6 Norte 16 Nordeste 0 -- -- 41
2019-08-02 13:00:00 27.4 5 Oeste 19 Oeste 0 -- -- 47
2019-08-02 12:00:00 25.4 5 Oeste 14 Nordeste 0 -- -- 50
2019-08-02 11:00:00 23.8 6 Nordeste 14 Norte 0 -- -- 53
2019-08-02 10:00:00 22.3 7 Norte 22 Noroeste 0 -- -- 60
2019-08-02 09:00:00 19.1 4 Oeste 9 Noroeste 0 -- -- 76
2019-08-02 08:00:00 15.9 7 Noroeste 11 Noroeste 0 -- -- 91
2019-08-02 07:00:00 14.5 5 Noroeste 10 Oeste 0 -- -- 92
2019-08-02 06:00:00 14.8 4 Oeste 8 Oeste 0 -- -- 90
2019-08-02 05:00:00 15.6 6 Oeste 13 Oeste 0 -- -- 90
2019-08-02 04:00:00 16.3 6 Oeste 10 Oeste 0 -- -- 88
2019-08-02 03:00:00 17.5 6 Oeste 14 Noroeste 0 -- -- 83
2019-08-02 02:00:00 18.3 4 Noroeste 17 Noroeste 0 -- -- 79
2019-08-02 01:00:00 18.5 9 Noroeste 15 Noroeste 0 -- -- 79
2019-08-02 00:00:00 18.6 9 Norte 17 Noroeste 0 -- -- 80
2019-08-01 23:00:00 18.9 11 Noroeste 22 Norte 0 -- -- 79
2019-08-01 22:00:00 19.3 11 Noroeste 35 Norte 0 -- -- 78
2019-08-01 21:00:00 20.5 15 Norte 36 Norte 0 -- -- 74
2019-08-01 20:00:00 22.9 19 Noroeste 37 Noroeste 0 -- -- 67
2019-08-01 19:00:00 25.8 13 Norte 34 Noroeste 0 -- -- 59
2019-08-01 18:00:00 29.8 7 Este 18 Nordeste 0 -- -- 45
2019-08-01 17:00:00 29.7 6 Nordeste 25 Este 0 -- -- 45
2019-08-01 16:00:00 28.9 8 Este 19 Este 0 -- -- 48
2019-08-01 15:00:00 27.8 9 Este 24 Este 0 -- -- 51
2019-08-01 14:00:00 26.1 14 Este 26 Este 0 -- -- 58
2019-08-01 13:00:00 24.5 9 Este 20 Este 0 -- -- 64
2019-08-01 12:00:00 20.8 9 Sudeste 17 Sudeste 0 -- -- 77
2019-08-01 11:00:00 18.4 5 Sudeste 17 Sudeste 0 -- -- 89
2019-08-01 10:00:00 18.2 8 Sudeste 31 Este 0.2 -- -- 91
2019-08-01 09:00:00 18.1 4 Este 15 Noroeste 3.6 -- -- 86
2019-08-01 08:00:00 18.2 5 Nordeste 27 Norte 0 -- -- 78
2019-08-01 07:00:00 17.5 16 Norte 30 Norte 0.2 -- -- 80
2019-08-01 06:00:00 17.4 4 Norte 19 Noroeste 0 -- -- 81
2019-08-01 05:00:00 16.5 4 Noroeste 10 Norte 0 -- -- 79
2019-08-01 04:00:00 16.8 8 Norte 14 Noroeste 0 -- -- 77
2019-08-01 03:00:00 17.1 6 Noroeste 11 Norte 0 -- -- 75
2019-08-01 02:00:00 17.7 3 Noroeste 14 Noroeste 0 -- -- 73
2019-08-01 01:00:00 18.2 6 Noroeste 21 Norte 0 -- -- 72
2019-08-01 00:00:00 18.9 11 Norte 32 Norte 0 -- -- 69
2019-07-31 23:00:00 19.7 14 Norte 29 Norte 0 -- -- 66
2019-07-31 22:00:00 21.3 12 Norte 28 Norte 0 -- -- 59
2019-07-31 21:00:00 24.1 10 Nordeste 22 Nordeste 0 -- -- 52
2019-07-31 20:00:00 27 12 Este 22 Sudeste 0 -- -- 36
2019-07-31 19:00:00 27.9 12 Este 23 Este 0 -- -- 31
2019-07-31 18:00:00 28 14 Este 26 Este 0 -- -- 31
2019-07-31 17:00:00 28.1 13 Sudeste 25 Este 0 -- -- 31
2019-07-31 16:00:00 27.3 12 Este 21 Sudeste 0 -- -- 31
2019-07-31 15:00:00 28 12 Sudeste 22 Sudeste 0 -- -- 26
2019-07-31 14:00:00 25.9 6 Sudeste 20 Sudeste 0 -- -- 32
2019-07-31 13:00:00 24.6 6 Este 18 Norte 0 -- -- 37
2019-07-31 12:00:00 22.4 8 Nordeste 16 Este 0 -- -- 41
2019-07-31 11:00:00 20.4 8 Nordeste 15 Este 0 -- -- 44
2019-07-31 10:00:00 16.9 4 Sudoeste 9 Sudoeste 0 -- -- 62
2019-07-31 09:00:00 13.8 3 Sudoeste 12 Noroeste 0 -- -- 75
2019-07-31 08:00:00 12.5 9 Noroeste 16 Noroeste 0 -- -- 80
2019-07-31 07:00:00 10.8 10 Noroeste 13 Oeste 0 -- -- 84
2019-07-31 06:00:00 11.6 5 Oeste 11 Noroeste 0 -- -- 80
2019-07-31 05:00:00 11.2 5 Oeste 10 Oeste 0 -- -- 83
2019-07-31 04:00:00 11.6 8 Noroeste 14 Noroeste 0 -- -- 81
2019-07-31 03:00:00 12.4 8 Oeste 12 Noroeste 0 -- -- 78
2019-07-31 02:00:00 13.7 9 Noroeste 19 Noroeste 0 -- -- 73
2019-07-31 01:00:00 14.1 8 Noroeste 23 Norte 0 -- -- 70
2019-07-31 00:00:00 14.9 11 Norte 39 Norte 0 -- -- 67
2019-07-30 23:00:00 15.6 17 Norte 39 Norte 0 -- -- 67
2019-07-30 22:00:00 16.3 17 Norte 40 Nordeste 0 -- -- 64
2019-07-30 21:00:00 17.7 21 Norte 38 Norte 0 -- -- 59
2019-07-30 20:00:00 19.6 17 Norte 31 Norte 0 -- -- 52
2019-07-30 19:00:00 21.7 17 Norte 33 Norte 0 -- -- 47
2019-07-30 18:00:00 23.6 13 Norte 30 Norte 0 -- -- 42
2019-07-30 17:00:00 24.6 14 Norte 35 Norte 0 -- -- 38
2019-07-30 16:00:00 25.8 13 Norte 31 Noroeste 0 -- -- 36
2019-07-30 15:00:00 24.8 14 Norte 31 Noroeste 0 -- -- 38
2019-07-30 14:00:00 23.5 13 Noroeste 34 Noroeste 0 -- -- 40
2019-07-30 13:00:00 22.8 12 Norte 28 Noroeste 0 -- -- 41
2019-07-30 12:00:00 22.3 13 Noroeste 30 Noroeste 0 -- -- 42
2019-07-30 11:00:00 21.5 14 Noroeste 28 Noroeste 0 -- -- 46
2019-07-30 10:00:00 20.1 14 Noroeste 31 Noroeste 0 -- -- 49
2019-07-30 09:00:00 17.5 12 Noroeste 26 Noroeste 0 -- -- 59
2019-07-30 08:00:00 16.4 6 Norte 21 Noroeste 0 -- -- 68
2019-07-30 07:00:00 15.6 10 Norte 20 Noroeste 0 -- -- 72
2019-07-30 06:00:00 15.7 12 Noroeste 25 Norte 0 -- -- 71
2019-07-30 05:00:00 15.6 11 Noroeste 23 Norte 0 -- -- 74
2019-07-30 04:00:00 16.1 9 Noroeste 26 Noroeste 0 -- -- 74
2019-07-30 03:00:00 15.9 8 Noroeste 29 Noroeste 0 -- -- 75
2019-07-30 02:00:00 16.6 14 Norte 29 Norte 0 -- -- 73
2019-07-30 01:00:00 17.5 10 Noroeste 27 Noroeste 0 -- -- 72
2019-07-30 00:00:00 17.2 12 Noroeste 32 Noroeste 0 -- -- 72
2019-07-29 23:00:00 17.4 13 Noroeste 38 Norte 0 -- -- 69
2019-07-29 22:00:00 17.7 20 Noroeste 39 Norte 0 -- -- 68
2019-07-29 21:00:00 19.1 19 Norte 49 Noroeste 0 -- -- 66
2019-07-29 20:00:00 21.9 23 Norte 42 Norte 0 -- -- 61
2019-07-29 19:00:00 25.4 23 Norte 43 Nordeste 0 -- -- 51
2019-07-29 18:00:00 32 17 Norte 30 Sudoeste 0 -- -- 36
2019-07-29 17:00:00 32.9 13 Oeste 29 Oeste 0 -- -- 26
2019-07-29 16:00:00 32.7 8 Oeste 19 Sudoeste 0 -- -- 27
2019-07-29 15:00:00 31.3 7 Sur 14 Sudoeste 0 -- -- 28
2019-07-29 14:00:00 29.8 8 Sur 18 Este 0 -- -- 30
2019-07-29 13:00:00 27.9 6 Sudeste 21 Sudeste 0 -- -- 33
2019-07-29 12:00:00 25.9 8 Sudeste 17 Este 0 -- -- 38
2019-07-29 11:00:00 23.9 9 Sudeste 19 Sudeste 0 -- -- 44
2019-07-29 10:00:00 21.3 7 Sudeste 13 Sudeste 0 -- -- 49
2019-07-29 09:00:00 17.5 2 Sudeste 4 Sudeste 0 -- -- 66
2019-07-29 08:00:00 14.2 2 Sudeste 12 Noroeste 0 -- -- 76
2019-07-29 07:00:00 12.4 7 Noroeste 12 Noroeste 0 -- -- 83
2019-07-29 06:00:00 12.8 2 Nordeste 8 Norte 0 -- -- 82
2019-07-29 05:00:00 13.2 2 Nordeste 6 Norte 0 -- -- 81
2019-07-29 04:00:00 13.4 2 Oeste 12 Norte 0 -- -- 80
2019-07-29 03:00:00 13.5 8 Norte 12 Norte 0 -- -- 81
2019-07-29 02:00:00 14.5 2 Oeste 12 Noroeste 0 -- -- 77
2019-07-29 01:00:00 15.1 5 Noroeste 11 Noroeste 0 -- -- 75
2019-07-29 00:00:00 16.1 8 Noroeste 9 Noroeste 0 -- -- 69
2019-07-28 23:00:00 18.1 6 Este 10 Este 0 -- -- 64
2019-07-28 22:00:00 19.8 3 Nordeste 14 Nordeste 0 -- -- 56
2019-07-28 21:00:00 22.5 9 Nordeste 23 Nordeste 0 -- -- 48
2019-07-28 20:00:00 24.6 10 Norte 22 Norte 0 -- -- 43
2019-07-28 19:00:00 26 11 Norte 22 Nordeste 0 -- -- 40
2019-07-28 18:00:00 26.7 10 Noroeste 22 Noroeste 0 -- -- 35
2019-07-28 17:00:00 27.1 12 Noroeste 25 Noroeste 0 -- -- 35
2019-07-28 16:00:00 25.5 10 Oeste 23 Norte 0 -- -- 38
2019-07-28 15:00:00 25.2 8 Sur 26 Noroeste 0 -- -- 39
2019-07-28 14:00:00 22.9 7 Norte 23 Noroeste 0 -- -- 45
2019-07-28 13:00:00 22.6 9 Noroeste 21 Noroeste 0 -- -- 47
2019-07-28 12:00:00 21.1 11 Noroeste 24 Noroeste 0 -- -- 52
2019-07-28 11:00:00 19.2 6 Oeste 17 Oeste 0 -- -- 59
2019-07-28 10:00:00 17.6 12 Oeste 22 Oeste 0 -- -- 70
2019-07-28 09:00:00 16.5 11 Oeste 20 Oeste 0 -- -- 71
2019-07-28 08:00:00 13.9 6 Noroeste 15 Oeste 0 -- -- 84
2019-07-28 07:00:00 14.1 14 Noroeste 20 Oeste 0 -- -- 81
2019-07-28 06:00:00 12.9 4 Oeste 13 Sudoeste 0 -- -- 89
2019-07-28 05:00:00 12.7 3 Oeste 15 Oeste 0 -- -- 87
2019-07-28 04:00:00 14.4 10 Noroeste 23 Oeste 0 -- -- 80
2019-07-28 03:00:00 14.5 13 Oeste 25 Noroeste 0 -- -- 82
2019-07-28 02:00:00 14.8 9 Oeste 16 Oeste 0 -- -- 79
2019-07-28 01:00:00 14.5 10 Oeste 22 Oeste 0 -- -- 77
2019-07-28 00:00:00 15.3 10 Noroeste 18 Noroeste 0 -- -- 76
2019-07-27 23:00:00 16.1 7 Noroeste 16 Noroeste 0 -- -- 75
2019-07-26 12:00:00 -- -- -- -- -- -- -- -- --
2019-07-26 11:00:00 20.8 6 Oeste 18 Este 0 -- -- 86
2019-07-26 10:00:00 20.4 6 Noroeste 13 Noroeste 0 -- -- 88
2019-07-26 09:00:00 19.3 8 Sudeste 21 Norte 0.2 -- -- 91
2019-07-26 08:00:00 19.2 10 Oeste 25 Oeste 0.2 -- -- 94
2019-07-26 07:00:00 19 7 Norte 17 Sudoeste 0.2 -- -- 91
2019-07-26 06:00:00 19 12 Nordeste 31 Norte 0.8 -- -- 90
2019-07-26 05:00:00 19.8 8 Norte 29 Norte 1.6 -- -- 87
2019-07-26 04:00:00 21.3 14 Noroeste 25 Noroeste 0 -- -- 76
2019-07-26 03:00:00 21.3 10 Noroeste 21 Norte 0 -- -- 76
2019-07-26 02:00:00 21.8 11 Noroeste 25 Norte 0 -- -- 75
2019-07-26 01:00:00 22.1 12 Noroeste 31 Noroeste 0 -- -- 74
2019-07-26 00:00:00 22.8 16 Noroeste 41 Norte 0 -- -- 72
2019-07-25 23:00:00 23.9 20 Norte 37 Norte 0 -- -- 69
2019-07-25 22:00:00 28.4 12 Norte 27 Norte 0 -- -- 48
2019-07-25 21:00:00 32 22 Sudeste 37 Sudeste 0 -- -- 32
2019-07-25 20:00:00 33 22 Sudeste 41 Sudeste 0 -- -- 29
2019-07-25 19:00:00 35.4 27 Sudeste 46 Sudeste 0 -- -- 26
2019-07-25 18:00:00 36.7 11 Sudeste 27 Sudeste 0 -- -- 24
2019-07-25 17:00:00 38.4 15 Sudeste 29 Sudeste 0 -- -- 22
2019-07-25 16:00:00 36.9 15 Sudeste 35 Este 0 -- -- 23
2019-07-25 15:00:00 37.2 15 Sudeste 31 Sudeste 0 -- -- 24
2019-07-25 14:00:00 35.7 17 Este 29 Este 0 -- -- 27
2019-07-25 13:00:00 34.2 14 Sudeste 31 Este 0 -- -- 29
2019-07-25 12:00:00 31.9 19 Este 32 Este 0 -- -- 33
2019-07-25 11:00:00 29.9 21 Este 31 Este 0 -- -- 38
2019-07-25 10:00:00 28 13 Este 23 Este 0 -- -- 43
2019-07-25 09:00:00 26.1 13 Este 21 Este 0 -- -- 47
2019-07-25 08:00:00 23.7 11 Este 18 Este 0 -- -- 53
2019-07-25 07:00:00 23.9 8 Este 19 Sudeste 0 -- -- 51
2019-07-25 06:00:00 25 13 Este 26 Este 0 -- -- 48
2019-07-25 05:00:00 25.6 14 Este 24 Este 0 -- -- 47
2019-07-25 04:00:00 26 15 Este 23 Este 0 -- -- 46
2019-07-25 03:00:00 26.3 11 Este 22 Este 0 -- -- 43
2019-07-25 02:00:00 27.7 12 Este 21 Este 0 -- -- 38
2019-07-25 01:00:00 28.8 12 Este 24 Este 0 -- -- 35
2019-07-25 00:00:00 29.8 13 Este 20 Este 0 -- -- 32
2019-07-24 23:00:00 30.7 6 Este 16 Este 0 -- -- 29
2019-07-24 22:00:00 31.7 10 Este 21 Sudeste 0 -- -- 26
2019-07-24 21:00:00 34 9 Sudeste 36 Sur 0 -- -- 23
2019-07-24 20:00:00 36.2 26 Sudeste 41 Sudeste 0 -- -- 21
2019-07-24 19:00:00 37.8 23 Sudeste 37 Sudeste 0 -- -- 20
2019-07-24 18:00:00 38.7 17 Sudeste 35 Este 0 -- -- 19
2019-07-24 17:00:00 38.3 21 Sudeste 35 Este 0 -- -- 21
2019-07-24 16:00:00 37.7 18 Este 36 Este 0 -- -- 22
2019-07-24 15:00:00 37.1 14 Sudeste 30 Sudeste 0 -- -- 25
2019-07-24 14:00:00 35.9 16 Sudeste 29 Sudeste 0 -- -- 26
2019-07-24 13:00:00 34.5 15 Este 26 Este 0 -- -- 29
2019-07-24 12:00:00 32.5 11 Sudeste 21 Sudeste 0 -- -- 32
2019-07-24 11:00:00 30.6 12 Este 18 Este 0 -- -- 34
2019-07-24 10:00:00 27.2 9 Este 15 Este 0 -- -- 42
2019-07-24 09:00:00 23.4 3 Este 13 Norte 0 -- -- 54
2019-07-24 08:00:00 20.4 5 Norte 11 Norte 0 -- -- 62
2019-07-24 07:00:00 19.6 7 Noroeste 13 Norte 0 -- -- 63
2019-07-24 06:00:00 19.9 9 Nordeste 13 Noroeste 0 -- -- 61
2019-07-24 05:00:00 20.6 3 Norte 9 Norte 0 -- -- 59
2019-07-24 04:00:00 21.5 9 Norte 13 Norte 0 -- -- 56
2019-07-24 03:00:00 -- 10 Noroeste 14 Noroeste 0 -- -- --
2019-07-24 02:00:00 24.8 6 Noroeste 20 Sudoeste 0 -- -- 47
2019-07-24 01:00:00 26.5 6 Nordeste 26 Noroeste 0 -- -- 41
2019-07-24 00:00:00 26.5 11 Noroeste 27 Norte 0 -- -- 42
2019-07-23 23:00:00 28.5 12 Norte 29 Sudoeste 0 -- -- 36
2019-07-23 22:00:00 31.8 9 Sur 53 Este 0 -- -- 29
2019-07-23 21:00:00 27.9 18 Este 31 Oeste 0.6 -- -- 44
2019-07-23 20:00:00 29.2 19 Noroeste 46 Oeste 0.2 -- -- 38
2019-07-23 19:00:00 37.5 16 Este 30 Nordeste 0 -- -- 20
2019-07-23 18:00:00 38.7 14 Sudeste 30 Sudeste 0 -- -- 20
2019-07-23 17:00:00 38.4 12 Sudeste 35 Este 0 -- -- 19
2019-07-23 16:00:00 38.6 14 Sudeste 31 Sudeste 0 -- -- 19
2019-07-23 15:00:00 37.6 16 Sudeste 32 Este 0 -- -- 21
2019-07-23 14:00:00 36.7 11 Sudeste 24 Sudeste 0 -- -- 22
2019-07-23 13:00:00 35 9 Sudeste 21 Este 0 -- -- 25
2019-07-23 12:00:00 32.7 6 Sudeste 19 Este 0 -- -- 28
2019-07-23 11:00:00 30.5 8 Este 20 Sudeste 0 -- -- 31
2019-07-23 10:00:00 27.8 6 Sudeste 18 Este 0 -- -- 36
2019-07-23 09:00:00 25.7 11 Este 17 Sudeste 0 -- -- 41
2019-07-23 08:00:00 22.7 8 Nordeste 13 Nordeste 0 -- -- 46
2019-07-23 07:00:00 21.9 7 Nordeste 14 Este 0 -- -- 47
2019-07-23 06:00:00 22.1 7 Nordeste 17 Noroeste 0 -- -- 47
2019-07-23 05:00:00 23.1 7 Este 9 Este 0 -- -- 46
2019-07-23 04:00:00 24.8 8 Este 19 Sudeste 0 -- -- 43
2019-07-23 03:00:00 26.2 14 Este 22 Este 0 -- -- 41
2019-07-23 02:00:00 27.4 12 Este 20 Este 0 -- -- 40
2019-07-23 01:00:00 27.8 6 Este 30 Este 0 -- -- 38
2019-07-23 00:00:00 29.4 16 Este 30 Este 0 -- -- 35
2019-07-22 23:00:00 30.9 18 Este 28 Este 0 -- -- 30
2019-07-22 22:00:00 31.8 13 Este 18 Este 0 -- -- 28
2019-07-22 21:00:00 34.4 10 Sudeste 25 Sudeste 0 -- -- 24
2019-07-22 20:00:00 36.3 15 Sudeste 28 Sudeste 0 -- -- 23
2019-07-22 19:00:00 37.5 15 Sudeste 29 Este 0 -- -- 22
2019-07-22 18:00:00 37.9 17 Sudeste 33 Sudeste 0 -- -- 21
2019-07-22 17:00:00 37.7 20 Sudeste 33 Sudeste 0 -- -- 21
2019-07-22 16:00:00 37.2 18 Sudeste 32 Sudeste 0 -- -- 22
2019-07-22 15:00:00 35.9 20 Sudeste 35 Sur 0 -- -- 26
2019-07-22 14:00:00 34.1 15 Sudeste 31 Este 0 -- -- 30
2019-07-22 13:00:00 32.2 15 Sudeste 28 Este 0 -- -- 33
2019-07-22 12:00:00 30.2 15 Este 25 Este 0 -- -- 40
2019-07-22 11:00:00 27.6 15 Este 23 Este 0 -- -- 50
2019-07-22 10:00:00 25.2 9 Sudeste 19 Este 0 -- -- 59
2019-07-22 09:00:00 22.5 3 Oeste 8 Oeste 0 -- -- 79
2019-07-22 08:00:00 20.9 6 Oeste 21 Nordeste 0.2 -- -- 86
2019-07-22 07:00:00 20 9 Nordeste 15 Norte 0 -- -- 87
2019-07-22 06:00:00 20 5 Norte 12 Norte 0 -- -- 87
2019-07-22 05:00:00 20.1 6 Noroeste 12 Noroeste 0 -- -- 88
2019-07-22 04:00:00 20.6 5 Noroeste 13 Nordeste 0 -- -- 86
2019-07-22 03:00:00 20.8 8 Norte 19 Norte 0 -- -- 84
2019-07-22 02:00:00 20.8 10 Norte 20 Nordeste 0 -- -- 84
2019-07-22 01:00:00 21.2 8 Norte 21 Noroeste 0 -- -- 85
2019-07-22 00:00:00 21.7 0 Calma 26 Norte 0 -- -- 82
2019-07-21 23:00:00 21.5 18 Norte 32 Norte 1.2 -- -- 85
2019-07-21 22:00:00 24 12 Norte 34 Norte 0.4 -- -- 75
2019-07-21 21:00:00 28.5 14 Norte 31 Norte 0 -- -- 52
2019-07-21 20:00:00 33.7 10 Este 18 Este 0 -- -- 35
2019-07-21 19:00:00 34.1 7 Este 27 Este 0 -- -- 33
2019-07-21 18:00:00 34.7 12 Este 28 Este 0 -- -- 33
2019-07-21 17:00:00 34.2 13 Sudeste 28 Este 0 -- -- 33
2019-07-21 16:00:00 33.6 14 Sudeste 26 Este 0 -- -- 36
2019-07-21 15:00:00 32.2 14 Este 30 Este 0 -- -- 39
2019-07-21 14:00:00 30.6 12 Sudeste 31 Este 0 -- -- 43
2019-07-21 13:00:00 29.7 10 Sudeste 24 Este 0 -- -- 45
2019-07-21 12:00:00 27.5 11 Este 24 Este 0 -- -- 49
2019-07-21 11:00:00 26.1 11 Este 18 Este 0 -- -- 53
2019-07-21 10:00:00 24 4 Este 10 Nordeste 0 -- -- 62
2019-07-21 09:00:00 21.9 6 Norte 11 Norte 0 -- -- 70
2019-07-21 08:00:00 19.4 7 Noroeste 10 Noroeste 0 -- -- 81
2019-07-21 07:00:00 18.3 7 Noroeste 9 Noroeste 0 -- -- 84
2019-07-21 06:00:00 19 5 Noroeste 12 Noroeste 0 -- -- 81
2019-07-21 05:00:00 19.8 5 Noroeste 12 Noroeste 0 -- -- 78
2019-07-21 04:00:00 20.3 6 Noroeste 14 Noroeste 0 -- -- 76
2019-07-21 03:00:00 20.3 5 Noroeste 21 Norte 0 -- -- 76
2019-07-21 02:00:00 20.1 11 Noroeste 22 Noroeste 0 -- -- 75
2019-07-21 01:00:00 19.9 10 Noroeste 26 Norte 0 -- -- 77
2019-07-21 00:00:00 20.4 11 Norte 31 Noroeste 0 -- -- 74
2019-07-20 23:00:00 20.8 15 Norte 34 Norte 0 -- -- 72
2019-07-20 22:00:00 21.7 17 Norte 37 Norte 0 -- -- 71
2019-07-20 21:00:00 23.2 20 Norte 40 Noroeste 0 -- -- 66
2019-07-20 20:00:00 26.5 18 Norte 39 Norte 0 -- -- 56
2019-07-20 19:00:00 30.2 19 Norte 35 Norte 0 -- -- 47
2019-07-20 18:00:00 33.9 15 Norte 29 Norte 0 -- -- 40
2019-07-20 17:00:00 34.6 7 Sudeste 19 Este 0 -- -- 35
2019-07-20 16:00:00 33.7 7 Este 19 Este 0 -- -- 37
2019-07-20 15:00:00 32.4 8 Este 26 Norte 0 -- -- 39
2019-07-20 14:00:00 31.2 7 Nordeste 23 Este 0 -- -- 42
2019-07-20 13:00:00 29.4 10 Este 30 Sudeste 0 -- -- 46
2019-07-20 12:00:00 27.7 14 Este 27 Este 0 -- -- 50
2019-07-20 11:00:00 26.4 10 Este 22 Este 0 -- -- 54
2019-07-20 10:00:00 24.6 11 Este 18 Este 0 -- -- 57
2019-07-20 09:00:00 23.4 10 Este 15 Este 0 -- -- 59
2019-07-20 08:00:00 21.4 9 Este 15 Nordeste 0 -- -- 63
2019-07-20 07:00:00 20.7 10 Este 17 Nordeste 0 -- -- 64
2019-07-20 06:00:00 21 9 Este 14 Este 0 -- -- 61
2019-07-20 05:00:00 22 10 Este 17 Sudeste 0 -- -- 59
2019-07-20 04:00:00 23.3 12 Este 26 Este 0 -- -- 56
2019-07-20 03:00:00 24.6 12 Este 22 Este 0 -- -- 54
2019-07-20 02:00:00 25.4 12 Este 19 Este 0 -- -- 53
2019-07-20 01:00:00 26.2 13 Este 26 Este 0 -- -- 52
2019-07-20 00:00:00 27.7 15 Sudeste 24 Sudeste 0 -- -- 46
2019-07-19 23:00:00 28.5 10 Este 22 Este 0 -- -- 40
2019-07-19 22:00:00 29.7 11 Este 20 Sudeste 0 -- -- 37
2019-07-19 21:00:00 31.1 12 Sudeste 26 Sudeste 0 -- -- 35
2019-07-19 20:00:00 32.7 13 Sudeste 25 Sudeste 0 -- -- 33
2019-07-19 19:00:00 34.1 10 Sudeste 22 Sudeste 0 -- -- 31
2019-07-19 18:00:00 33.8 12 Este 27 Este 0 -- -- 29
2019-07-19 17:00:00 33.5 13 Este 28 Este 0 -- -- 27
2019-07-19 16:00:00 32.5 12 Este 30 Este 0 -- -- 28
2019-07-19 15:00:00 31.8 13 Este 26 Este 0 -- -- 27
2019-07-19 14:00:00 29.8 13 Sudeste 26 Este 0 -- -- 32
2019-07-19 13:00:00 28.3 11 Sudeste 24 Este 0 -- -- 31
2019-07-19 12:00:00 26.1 9 Este 18 Este 0 -- -- 36
2019-07-19 11:00:00 24 8 Este 17 Este 0 -- -- 40
2019-07-19 10:00:00 21.3 5 Sudeste 10 Sudeste 0 -- -- 46
2019-07-19 09:00:00 18.3 3 Sudeste 8 Oeste 0 -- -- 59
2019-07-19 08:00:00 14.5 0 Calma 13 Norte 0 -- -- 71
2019-07-19 07:00:00 12.7 10 Norte 13 Norte 0 -- -- 78
2019-07-19 06:00:00 13.4 5 Noroeste 19 Noroeste 0 -- -- 77
2019-07-19 05:00:00 13.7 13 Noroeste 16 Norte 0 -- -- 78
2019-07-19 04:00:00 14.6 10 Norte 15 Norte 0 -- -- 78
2019-07-19 03:00:00 15.2 13 Norte 17 Norte 0 -- -- 78
2019-07-19 02:00:00 15.7 8 Norte 14 Norte 0 -- -- 78
2019-07-19 01:00:00 16.5 10 Norte 15 Norte 0 -- -- 76
2019-07-19 00:00:00 18.1 8 Norte 12 Nordeste 0 -- -- 70